»·PEaware :: N13W KPSP-KNYL

N13W :: KPSP-KNYL

FLIGHT INFORMATION

Flight Status: Arrived
Operator: Privately registered:
United States
More flights under this callsign
Pilot: Will N. (25416)
Aircraft: SOCATA TBM-900
(TBM9)
More flights by this aircraft type
Origin: KPSP Palm Springs Intl
United States
Destination: KNYL Yuma MCAS/Yuma Intl
United States
More flights between these airports :: More routes between these airports
Route: CATH1 PSP V137 TRM V137 IPL V458 BZA
File this flight plan on PilotEdge
Remarks: RMK / SIMBRIEF
Altitude:
(Current/Filed)
13,000ft
Speed:
(Current/Filed)
280kts
Departed: 26-Dec-20 08:18 AM
Arrived: 26-Dec-20 08:57 AM
Distance/Time
Traveled:
118nm/0:39
Distance/Time
To Go:
Arrived

Flight Plot

Page will automatically refresh every two minutes.

Flight plan parsing failed; only flown route is shown


Map Options




Map Legend


Flown Route
Filed Route
Departure Airport
Arrival Airport
Navaid (VOR, NDB)
Fix

Horizontal Profiles

Position Reports

Time Latitude Longitude Heading Altitude Ground
Speed
26-Dec-20 07:52 33.825783 -116.509476 356 421ft 0kts
26-Dec-20 07:52 33.825783 -116.509476 356 421ft 0kts
26-Dec-20 07:54 33.825783 -116.509476 356 421ft 0kts
26-Dec-20 07:54 33.825783 -116.509476 356 421ft 0kts
26-Dec-20 07:56 33.825783 -116.509476 356 421ft 0kts
26-Dec-20 07:56 33.825783 -116.509476 356 421ft 0kts
26-Dec-20 07:57 33.825783 -116.509476 356 421ft 0kts
26-Dec-20 07:58 33.825783 -116.509476 356 421ft 0kts
26-Dec-20 07:59 33.825783 -116.509476 356 421ft 0kts
26-Dec-20 08:00 33.825783 -116.509476 356 421ft 0kts
26-Dec-20 08:01 33.825783 -116.509476 356 421ft 0kts
26-Dec-20 08:02 33.825783 -116.509476 356 421ft 0kts
26-Dec-20 08:03 33.825783 -116.509476 356 421ft 0kts
26-Dec-20 08:04 33.825783 -116.509476 356 421ft 0kts
26-Dec-20 08:05 33.825783 -116.509476 356 421ft 0kts
26-Dec-20 08:06 33.825783 -116.509476 356 421ft 0kts
26-Dec-20 08:07 33.825783 -116.509476 356 421ft 0kts
26-Dec-20 08:08 33.825783 -116.509476 356 421ft 0kts
26-Dec-20 08:09 33.825783 -116.509476 356 421ft 0kts
26-Dec-20 08:10 33.825663 -116.509201 173 420ft 8kts
26-Dec-20 08:11 33.825312 -116.506868 106 416ft 7kts
26-Dec-20 08:12 33.822968 -116.504060 89 409ft 12kts
26-Dec-20 08:13 33.820146 -116.501216 142 401ft 12kts
26-Dec-20 08:14 33.818520 -116.499158 88 396ft 0kts
26-Dec-20 08:15 33.818520 -116.499158 88 396ft 0kts
26-Dec-20 08:16 33.819972 -116.499022 325 399ft 0kts
26-Dec-20 08:17 33.846037 -116.521216 321 1313ft 162kts
26-Dec-20 08:18 33.886996 -116.560820 321 3000ft 187kts
26-Dec-20 08:19 33.932595 -116.547906 81 4608ft 193kts
26-Dec-20 08:20 33.902448 -116.498020 133 6601ft 185kts
26-Dec-20 08:21 33.865508 -116.452111 134 8636ft 194kts
26-Dec-20 08:22 33.829890 -116.408079 136 11082ft 174kts
26-Dec-20 08:23 33.796916 -116.367489 137 13030ft 189kts
26-Dec-20 08:24 33.759263 -116.321247 137 13016ft 248kts
26-Dec-20 08:25 33.709022 -116.259439 137 13001ft 264kts
26-Dec-20 08:26 33.656893 -116.195471 137 12999ft 267kts
26-Dec-20 08:27 33.605263 -116.140384 147 13001ft 265kts
26-Dec-20 08:28 33.543889 -116.087491 147 13001ft 266kts
26-Dec-20 08:29 33.482459 -116.034571 147 13006ft 266kts
26-Dec-20 08:30 33.420369 -115.981180 147 13013ft 266kts
26-Dec-20 08:31 33.357707 -115.927396 147 13017ft 266kts
26-Dec-20 08:32 33.294558 -115.873300 147 13018ft 267kts
26-Dec-20 08:33 33.231338 -115.819242 147 13019ft 267kts
26-Dec-20 08:34 33.167859 -115.765062 147 13019ft 267kts
26-Dec-20 08:35 33.105561 -115.711991 147 13019ft 267kts
26-Dec-20 08:36 33.042119 -115.658053 146 13019ft 269kts
26-Dec-20 08:37 32.977584 -115.603278 146 13015ft 273kts
26-Dec-20 08:38 32.912119 -115.547783 145 13012ft 275kts
26-Dec-20 08:39 32.837240 -115.527001 173 13007ft 269kts
26-Dec-20 08:41 32.752345 -115.492518 112 12997ft 271kts
26-Dec-20 08:41 32.751057 -115.417385 84 13006ft 260kts
26-Dec-20 08:42 32.753242 -115.327767 85 12984ft 257kts
26-Dec-20 08:43 32.755306 -115.238263 85 12986ft 255kts
26-Dec-20 08:44 32.751626 -115.150033 110 12416ft 253kts
26-Dec-20 08:45 32.725490 -115.068936 110 10286ft 244kts
26-Dec-20 08:46 32.699957 -114.989720 110 8142ft 236kts
26-Dec-20 08:47 32.672637 -114.915375 115 6010ft 224kts
26-Dec-20 08:48 32.640173 -114.849492 120 3870ft 214kts
26-Dec-20 08:49 32.609323 -114.784598 101 1809ft 205kts
26-Dec-20 08:50 32.598684 -114.724353 101 1781ft 143kts
26-Dec-20 08:51 32.596130 -114.676536 49 1778ft 133kts
26-Dec-20 08:52 32.619793 -114.649200 44 1322ft 101kts
26-Dec-20 08:53 32.641625 -114.624026 44 293ft 95kts
26-Dec-20 08:56 32.662068 -114.610710 182 190ft 0kts

Navigation Log

Ident Type
Flight plan parsing failed, navigation log unavailable